sensor_id;sensor_type;location;lat;lon;timestamp;temperature;humidity
13221;DHT22;6675;48.128;11.478;2024-03-25T00:00:51;4.50;94.20
13221;DHT22;6675;48.128;11.478;2024-03-25T00:03:17;4.10;55.40
13221;DHT22;6675;48.128;11.478;2024-03-25T00:05:43;4.30;53.90
13221;DHT22;6675;48.128;11.478;2024-03-25T00:08:08;4.50;54.40
13221;DHT22;6675;48.128;11.478;2024-03-25T00:10:34;4.10;54.30
13221;DHT22;6675;48.128;11.478;2024-03-25T00:15:25;4.30;52.40
13221;DHT22;6675;48.128;11.478;2024-03-25T00:17:51;4.40;53.80
13221;DHT22;6675;48.128;11.478;2024-03-25T00:20:17;4.60;54.50
13221;DHT22;6675;48.128;11.478;2024-03-25T00:22:43;4.50;54.90
13221;DHT22;6675;48.128;11.478;2024-03-25T00:27:34;4.40;54.80
13221;DHT22;6675;48.128;11.478;2024-03-25T00:30:00;4.30;56.70
13221;DHT22;6675;48.128;11.478;2024-03-25T00:32:26;3.60;93.00
13221;DHT22;6675;48.128;11.478;2024-03-25T00:34:51;4.50;55.20
13221;DHT22;6675;48.128;11.478;2024-03-25T00:37:17;5.10;92.90
13221;DHT22;6675;48.128;11.478;2024-03-25T00:39:42;4.20;55.00
13221;DHT22;6675;48.128;11.478;2024-03-25T00:42:08;4.40;57.00
13221;DHT22;6675;48.128;11.478;2024-03-25T00:44:33;4.40;55.60
13221;DHT22;6675;48.128;11.478;2024-03-25T00:46:59;4.60;53.50
13221;DHT22;6675;48.128;11.478;2024-03-25T00:49:25;4.40;54.30
13221;DHT22;6675;48.128;11.478;2024-03-25T00:51:51;4.40;53.90
13221;DHT22;6675;48.128;11.478;2024-03-25T00:54:16;4.40;55.20
13221;DHT22;6675;48.128;11.478;2024-03-25T00:56:42;4.30;51.20
13221;DHT22;6675;48.128;11.478;2024-03-25T00:59:07;3.90;51.30
13221;DHT22;6675;48.128;11.478;2024-03-25T01:01:33;4.50;51.00
13221;DHT22;6675;48.128;11.478;2024-03-25T01:04:01;4.50;51.50
13221;DHT22;6675;48.128;11.478;2024-03-25T01:06:27;4.60;51.40
13221;DHT22;6675;48.128;11.478;2024-03-25T01:08:52;4.50;51.40
13221;DHT22;6675;48.128;11.478;2024-03-25T01:11:18;4.40;50.90
13221;DHT22;6675;48.128;11.478;2024-03-25T01:13:43;4.50;50.10
13221;DHT22;6675;48.128;11.478;2024-03-25T01:16:09;4.80;91.20
13221;DHT22;6675;48.128;11.478;2024-03-25T01:18:35;4.10;49.00
13221;DHT22;6675;48.128;11.478;2024-03-25T01:21:00;4.60;90.80
13221;DHT22;6675;48.128;11.478;2024-03-25T01:23:26;4.40;49.70
13221;DHT22;6675;48.128;11.478;2024-03-25T01:25:52;4.50;47.70
13221;DHT22;6675;48.128;11.478;2024-03-25T01:28:18;4.50;49.60
13221;DHT22;6675;48.128;11.478;2024-03-25T01:30:43;5.90;90.10
13221;DHT22;6675;48.128;11.478;2024-03-25T01:33:09;4.60;47.10
13221;DHT22;6675;48.128;11.478;2024-03-25T01:35:35;4.50;47.20
13221;DHT22;6675;48.128;11.478;2024-03-25T01:38:00;4.60;48.10
13221;DHT22;6675;48.128;11.478;2024-03-25T01:40:26;4.80;46.60
13221;DHT22;6675;48.128;11.478;2024-03-25T01:42:59;4.20;44.00
13221;DHT22;6675;48.128;11.478;2024-03-25T01:45:25;4.60;45.90
13221;DHT22;6675;48.128;11.478;2024-03-25T01:47:53;4.50;45.10
13221;DHT22;6675;48.128;11.478;2024-03-25T01:50:20;3.90;44.60
13221;DHT22;6675;48.128;11.478;2024-03-25T01:52:46;4.00;47.90
13221;DHT22;6675;48.128;11.478;2024-03-25T01:55:16;4.60;90.40
13221;DHT22;6675;48.128;11.478;2024-03-25T01:57:44;4.00;47.60
13221;DHT22;6675;48.128;11.478;2024-03-25T02:00:10;4.40;46.10
13221;DHT22;6675;48.128;11.478;2024-03-25T02:02:39;4.50;48.40
13221;DHT22;6675;48.128;11.478;2024-03-25T02:05:07;4.30;42.90
13221;DHT22;6675;48.128;11.478;2024-03-25T02:07:35;4.30;42.60
13221;DHT22;6675;48.128;11.478;2024-03-25T02:10:03;4.70;46.00
13221;DHT22;6675;48.128;11.478;2024-03-25T02:12:30;4.40;90.90
13221;DHT22;6675;48.128;11.478;2024-03-25T02:14:57;4.00;45.80
13221;DHT22;6675;48.128;11.478;2024-03-25T02:17:23;4.30;88.40
13221;DHT22;6675;48.128;11.478;2024-03-25T02:19:50;4.30;88.40
13221;DHT22;6675;48.128;11.478;2024-03-25T02:22:15;4.60;86.40
13221;DHT22;6675;48.128;11.478;2024-03-25T02:24:41;4.10;44.00
13221;DHT22;6675;48.128;11.478;2024-03-25T02:27:07;4.50;43.10
13221;DHT22;6675;48.128;11.478;2024-03-25T02:29:36;4.20;44.40
13221;DHT22;6675;48.128;11.478;2024-03-25T02:32:02;3.30;88.50
13221;DHT22;6675;48.128;11.478;2024-03-25T02:34:28;4.20;43.50
13221;DHT22;6675;48.128;11.478;2024-03-25T02:36:54;4.40;47.10
13221;DHT22;6675;48.128;11.478;2024-03-25T02:39:20;4.20;45.50
13221;DHT22;6675;48.128;11.478;2024-03-25T02:41:46;4.20;91.50
13221;DHT22;6675;48.128;11.478;2024-03-25T02:44:12;3.50;47.20
13221;DHT22;6675;48.128;11.478;2024-03-25T02:46:40;4.00;48.50
13221;DHT22;6675;48.128;11.478;2024-03-25T02:49:06;4.20;51.30
13221;DHT22;6675;48.128;11.478;2024-03-25T02:51:32;4.30;91.60
13221;DHT22;6675;48.128;11.478;2024-03-25T02:53:57;3.90;50.60
13221;DHT22;6675;48.128;11.478;2024-03-25T02:56:23;4.00;92.30
13221;DHT22;6675;48.128;11.478;2024-03-25T02:58:48;4.10;52.10
13221;DHT22;6675;48.128;11.478;2024-03-25T03:01:16;3.80;52.60
13221;DHT22;6675;48.128;11.478;2024-03-25T03:03:41;3.80;53.30
13221;DHT22;6675;48.128;11.478;2024-03-25T03:06:07;5.20;92.80
13221;DHT22;6675;48.128;11.478;2024-03-25T03:08:33;3.90;53.40
13221;DHT22;6675;48.128;11.478;2024-03-25T03:10:58;4.30;93.20
13221;DHT22;6675;48.128;11.478;2024-03-25T03:13:24;3.80;95.20
13221;DHT22;6675;48.128;11.478;2024-03-25T03:15:49;4.00;55.70
13221;DHT22;6675;48.128;11.478;2024-03-25T03:18:15;3.50;58.50
13221;DHT22;6675;48.128;11.478;2024-03-25T03:20:40;3.90;58.30
13221;DHT22;6675;48.128;11.478;2024-03-25T03:23:06;3.90;59.20
13221;DHT22;6675;48.128;11.478;2024-03-25T03:25:31;3.70;93.20
13221;DHT22;6675;48.128;11.478;2024-03-25T03:27:57;4.10;95.70
13221;DHT22;6675;48.128;11.478;2024-03-25T03:30:22;3.50;59.00
13221;DHT22;6675;48.128;11.478;2024-03-25T03:32:48;3.80;59.20
13221;DHT22;6675;48.128;11.478;2024-03-25T03:35:13;3.80;94.20
13221;DHT22;6675;48.128;11.478;2024-03-25T03:37:39;4.00;59.10
13221;DHT22;6675;48.128;11.478;2024-03-25T03:40:05;4.20;57.40
13221;DHT22;6675;48.128;11.478;2024-03-25T03:42:33;4.10;57.10
13221;DHT22;6675;48.128;11.478;2024-03-25T03:44:59;4.00;57.50
13221;DHT22;6675;48.128;11.478;2024-03-25T03:47:24;4.50;93.80
13221;DHT22;6675;48.128;11.478;2024-03-25T03:49:50;3.50;56.90
13221;DHT22;6675;48.128;11.478;2024-03-25T03:52:15;4.80;93.00
13221;DHT22;6675;48.128;11.478;2024-03-25T03:54:41;4.00;55.40
13221;DHT22;6675;48.128;11.478;2024-03-25T03:57:06;3.90;55.40
13221;DHT22;6675;48.128;11.478;2024-03-25T03:59:32;3.90;57.10
13221;DHT22;6675;48.128;11.478;2024-03-25T04:01:57;3.60;55.00
13221;DHT22;6675;48.128;11.478;2024-03-25T04:04:23;4.30;55.90
13221;DHT22;6675;48.128;11.478;2024-03-25T04:06:49;4.20;54.00
13221;DHT22;6675;48.128;11.478;2024-03-25T04:09:14;4.20;55.00
13221;DHT22;6675;48.128;11.478;2024-03-25T04:11:40;3.80;53.40
13221;DHT22;6675;48.128;11.478;2024-03-25T04:14:05;4.20;54.80
13221;DHT22;6675;48.128;11.478;2024-03-25T04:16:31;4.10;51.60
13221;DHT22;6675;48.128;11.478;2024-03-25T04:18:57;3.80;52.30
13221;DHT22;6675;48.128;11.478;2024-03-25T04:21:23;3.80;51.00
13221;DHT22;6675;48.128;11.478;2024-03-25T04:23:49;4.30;53.10
13221;DHT22;6675;48.128;11.478;2024-03-25T04:28:40;4.20;51.10
13221;DHT22;6675;48.128;11.478;2024-03-25T04:31:08;4.20;51.70
13221;DHT22;6675;48.128;11.478;2024-03-25T04:36:00;4.00;91.90
13221;DHT22;6675;48.128;11.478;2024-03-25T04:38:25;3.90;51.10
13221;DHT22;6675;48.128;11.478;2024-03-25T04:40:51;4.00;50.80
13221;DHT22;6675;48.128;11.478;2024-03-25T04:43:17;4.20;51.90
13221;DHT22;6675;48.128;11.478;2024-03-25T04:45:42;3.80;51.50
13221;DHT22;6675;48.128;11.478;2024-03-25T04:48:08;3.60;54.20
13221;DHT22;6675;48.128;11.478;2024-03-25T04:50:33;3.90;54.70
13221;DHT22;6675;48.128;11.478;2024-03-25T04:52:59;3.30;53.90
13221;DHT22;6675;48.128;11.478;2024-03-25T04:55:25;3.80;93.50
13221;DHT22;6675;48.128;11.478;2024-03-25T04:57:50;3.90;53.90
13221;DHT22;6675;48.128;11.478;2024-03-25T05:00:17;3.40;55.80
13221;DHT22;6675;48.128;11.478;2024-03-25T05:02:43;3.80;56.60
13221;DHT22;6675;48.128;11.478;2024-03-25T05:05:08;4.90;94.10
13221;DHT22;6675;48.128;11.478;2024-03-25T05:07:35;3.10;96.60
13221;DHT22;6675;48.128;11.478;2024-03-25T05:10:01;3.70;58.60
13221;DHT22;6675;48.128;11.478;2024-03-25T05:12:26;2.90;95.80
13221;DHT22;6675;48.128;11.478;2024-03-25T05:14:56;3.40;59.10
13221;DHT22;6675;48.128;11.478;2024-03-25T05:17:21;4.10;94.50
13221;DHT22;6675;48.128;11.478;2024-03-25T05:19:47;3.40;60.40
13221;DHT22;6675;48.128;11.478;2024-03-25T05:22:12;3.50;95.00
13221;DHT22;6675;48.128;11.478;2024-03-25T05:24:38;3.30;60.30
13221;DHT22;6675;48.128;11.478;2024-03-25T05:27:04;3.40;57.40
13221;DHT22;6675;48.128;11.478;2024-03-25T05:29:29;3.50;95.00
13221;DHT22;6675;48.128;11.478;2024-03-25T05:31:57;3.40;96.10
13221;DHT22;6675;48.128;11.478;2024-03-25T05:34:24;3.20;63.20
13221;DHT22;6675;48.128;11.478;2024-03-25T05:36:49;3.40;60.50
13221;DHT22;6675;48.128;11.478;2024-03-25T05:39:15;4.00;94.40
13221;DHT22;6675;48.128;11.478;2024-03-25T05:41:40;3.80;95.90
13221;DHT22;6675;48.128;11.478;2024-03-25T05:46:32;3.70;94.40
13221;DHT22;6675;48.128;11.478;2024-03-25T05:49:00;2.70;60.70
13221;DHT22;6675;48.128;11.478;2024-03-25T05:51:26;3.10;61.30
13221;DHT22;6675;48.128;11.478;2024-03-25T05:53:51;3.40;60.30
13221;DHT22;6675;48.128;11.478;2024-03-25T05:56:17;3.90;95.50
13221;DHT22;6675;48.128;11.478;2024-03-25T06:01:08;3.70;56.90
13221;DHT22;6675;48.128;11.478;2024-03-25T06:03:34;5.00;58.90
13221;DHT22;6675;48.128;11.478;2024-03-25T06:05:59;3.60;55.90
13221;DHT22;6675;48.128;11.478;2024-03-25T06:08:26;3.10;56.40
13221;DHT22;6675;48.128;11.478;2024-03-25T06:10:54;4.00;58.50
13221;DHT22;6675;48.128;11.478;2024-03-25T06:13:20;3.80;60.00
13221;DHT22;6675;48.128;11.478;2024-03-25T06:15:46;3.80;54.80
13221;DHT22;6675;48.128;11.478;2024-03-25T06:18:12;3.60;54.90
13221;DHT22;6675;48.128;11.478;2024-03-25T06:20:38;3.80;55.40
13221;DHT22;6675;48.128;11.478;2024-03-25T06:23:04;3.60;56.40
13221;DHT22;6675;48.128;11.478;2024-03-25T06:25:30;4.00;50.90
13221;DHT22;6675;48.128;11.478;2024-03-25T06:27:56;4.00;50.10
13221;DHT22;6675;48.128;11.478;2024-03-25T06:33:06;3.80;46.80
13221;DHT22;6675;48.128;11.478;2024-03-25T06:35:50;4.10;48.00
13221;DHT22;6675;48.128;11.478;2024-03-25T06:38:17;4.20;91.80
13221;DHT22;6675;48.128;11.478;2024-03-25T06:40:43;4.10;91.90
13221;DHT22;6675;48.128;11.478;2024-03-25T06:43:10;3.40;49.30
13221;DHT22;6675;48.128;11.478;2024-03-25T06:45:35;4.00;46.90
13221;DHT22;6675;48.128;11.478;2024-03-25T06:48:01;4.00;47.10
13221;DHT22;6675;48.128;11.478;2024-03-25T06:50:27;4.20;45.90
13221;DHT22;6675;48.128;11.478;2024-03-25T06:52:52;4.20;43.40
13221;DHT22;6675;48.128;11.478;2024-03-25T06:55:18;3.80;88.50
13221;DHT22;6675;48.128;11.478;2024-03-25T06:57:48;4.40;40.70
13221;DHT22;6675;48.128;11.478;2024-03-25T07:00:14;4.70;89.00
13221;DHT22;6675;48.128;11.478;2024-03-25T07:02:40;4.70;37.90
13221;DHT22;6675;48.128;11.478;2024-03-25T07:05:06;5.30;82.10
13221;DHT22;6675;48.128;11.478;2024-03-25T07:09:59;4.70;38.70
13221;DHT22;6675;48.128;11.478;2024-03-25T07:12:25;4.90;32.40
13221;DHT22;6675;48.128;11.478;2024-03-25T07:14:50;4.80;34.50
13221;DHT22;6675;48.128;11.478;2024-03-25T07:17:16;5.00;35.00
13221;DHT22;6675;48.128;11.478;2024-03-25T07:19:41;5.00;26.60
13221;DHT22;6675;48.128;11.478;2024-03-25T07:22:08;5.40;26.40
13221;DHT22;6675;48.128;11.478;2024-03-25T07:24:33;5.30;26.30
13221;DHT22;6675;48.128;11.478;2024-03-25T07:26:59;5.20;33.70
13221;DHT22;6675;48.128;11.478;2024-03-25T07:29:24;5.10;79.90
13221;DHT22;6675;48.128;11.478;2024-03-25T07:31:50;5.20;26.30
13221;DHT22;6675;48.128;11.478;2024-03-25T07:34:15;5.70;26.70
13221;DHT22;6675;48.128;11.478;2024-03-25T07:36:41;5.70;30.40
13221;DHT22;6675;48.128;11.478;2024-03-25T07:39:07;5.40;26.40
13221;DHT22;6675;48.128;11.478;2024-03-25T07:41:38;5.50;26.20
13221;DHT22;6675;48.128;11.478;2024-03-25T07:44:04;6.20;74.50
13221;DHT22;6675;48.128;11.478;2024-03-25T07:46:30;6.00;29.70
13221;DHT22;6675;48.128;11.478;2024-03-25T07:48:55;6.00;29.30
13221;DHT22;6675;48.128;11.478;2024-03-25T07:51:21;5.60;26.40
13221;DHT22;6675;48.128;11.478;2024-03-25T07:53:47;5.90;26.70
13221;DHT22;6675;48.128;11.478;2024-03-25T07:56:13;6.20;24.50
13221;DHT22;6675;48.128;11.478;2024-03-25T07:58:40;5.70;26.40
13221;DHT22;6675;48.128;11.478;2024-03-25T08:01:06;5.90;26.40
13221;DHT22;6675;48.128;11.478;2024-03-25T08:03:31;5.90;26.40
13221;DHT22;6675;48.128;11.478;2024-03-25T08:05:57;6.40;71.10
13221;DHT22;6675;48.128;11.478;2024-03-25T08:08:22;6.10;26.70
13221;DHT22;6675;48.128;11.478;2024-03-25T08:10:48;6.40;26.70
13221;DHT22;6675;48.128;11.478;2024-03-25T08:13:13;6.40;26.40
13221;DHT22;6675;48.128;11.478;2024-03-25T08:15:39;6.80;18.50
13221;DHT22;6675;48.128;11.478;2024-03-25T08:18:05;6.60;24.30
13221;DHT22;6675;48.128;11.478;2024-03-25T08:20:30;7.10;21.60
13221;DHT22;6675;48.128;11.478;2024-03-25T08:22:57;7.40;13.30
13221;DHT22;6675;48.128;11.478;2024-03-25T08:25:22;7.10;57.40
13221;DHT22;6675;48.128;11.478;2024-03-25T08:27:48;7.60;10.30
13221;DHT22;6675;48.128;11.478;2024-03-25T08:30:13;7.30;9.10
13221;DHT22;6675;48.128;11.478;2024-03-25T08:32:39;8.00;7.70
13221;DHT22;6675;48.128;11.478;2024-03-25T08:35:04;5.60;33.20
13221;DHT22;6675;48.128;11.478;2024-03-25T08:37:30;7.90;2.30
13221;DHT22;6675;48.128;11.478;2024-03-25T08:39:55;8.80;38.40
13221;DHT22;6675;48.128;11.478;2024-03-25T08:42:21;8.10;1.00
13221;DHT22;6675;48.128;11.478;2024-03-25T08:44:47;8.90;29.50
13221;DHT22;6675;48.128;11.478;2024-03-25T08:47:12;8.40;1.00
13221;DHT22;6675;48.128;11.478;2024-03-25T08:49:38;7.80;1.00
13221;DHT22;6675;48.128;11.478;2024-03-25T08:52:03;9.70;28.00
13221;DHT22;6675;48.128;11.478;2024-03-25T08:54:29;8.50;1.00
13221;DHT22;6675;48.128;11.478;2024-03-25T08:56:54;8.80;1.00
13221;DHT22;6675;48.128;11.478;2024-03-25T08:59:20;8.50;1.00
13221;DHT22;6675;48.128;11.478;2024-03-25T09:01:45;8.80;22.70
13221;DHT22;6675;48.128;11.478;2024-03-25T09:04:11;8.30;1.00
13221;DHT22;6675;48.128;11.478;2024-03-25T09:06:36;8.90;1.00
13221;DHT22;6675;48.128;11.478;2024-03-25T09:09:03;8.80;1.00
13221;DHT22;6675;48.128;11.478;2024-03-25T09:11:47;9.00;1.00
13221;DHT22;6675;48.128;11.478;2024-03-25T09:14:13;8.70;1.00
13221;DHT22;6675;48.128;11.478;2024-03-25T09:16:38;9.10;1.00
13221;DHT22;6675;48.128;11.478;2024-03-25T09:19:04;8.60;1.00
13221;DHT22;6675;48.128;11.478;2024-03-25T09:21:29;8.80;1.00
13221;DHT22;6675;48.128;11.478;2024-03-25T09:23:55;6.60;17.70
13221;DHT22;6675;48.128;11.478;2024-03-25T09:26:23;9.50;1.00
13221;DHT22;6675;48.128;11.478;2024-03-25T09:31:15;8.90;1.00
13221;DHT22;6675;48.128;11.478;2024-03-25T09:33:40;8.80;1.00
13221;DHT22;6675;48.128;11.478;2024-03-25T09:36:06;9.10;1.00
13221;DHT22;6675;48.128;11.478;2024-03-25T09:38:31;10.60;6.20
13221;DHT22;6675;48.128;11.478;2024-03-25T09:40:57;9.30;1.00
13221;DHT22;6675;48.128;11.478;2024-03-25T09:43:32;9.20;1.00
13221;DHT22;6675;48.128;11.478;2024-03-25T09:45:59;7.00;1.00
13221;DHT22;6675;48.128;11.478;2024-03-25T09:48:25;10.40;1.00
13221;DHT22;6675;48.128;11.478;2024-03-25T09:50:52;6.60;1.00
13221;DHT22;6675;48.128;11.478;2024-03-25T09:53:18;8.90;1.00
13221;DHT22;6675;48.128;11.478;2024-03-25T09:55:46;9.10;1.00
13221;DHT22;6675;48.128;11.478;2024-03-25T09:58:13;8.90;1.00
13221;DHT22;6675;48.128;11.478;2024-03-25T10:00:39;13.50;1.00
13221;DHT22;6675;48.128;11.478;2024-03-25T10:03:05;12.20;1.00
13221;DHT22;6675;48.128;11.478;2024-03-25T10:05:32;16.00;1.00
13221;DHT22;6675;48.128;11.478;2024-03-25T10:07:57;16.10;1.00
13221;DHT22;6675;48.128;11.478;2024-03-25T10:10:23;14.40;1.00
13221;DHT22;6675;48.128;11.478;2024-03-25T10:12:48;12.70;1.00
13221;DHT22;6675;48.128;11.478;2024-03-25T10:15:17;16.10;1.00
13221;DHT22;6675;48.128;11.478;2024-03-25T10:17:43;16.20;1.00
13221;DHT22;6675;48.128;11.478;2024-03-25T10:20:14;17.10;1.00
13221;DHT22;6675;48.128;11.478;2024-03-25T10:22:43;17.90;1.00
13221;DHT22;6675;48.128;11.478;2024-03-25T10:25:28;20.10;1.00
13221;DHT22;6675;48.128;11.478;2024-03-25T10:27:55;19.40;1.00
13221;DHT22;6675;48.128;11.478;2024-03-25T10:30:21;18.70;1.00
13221;DHT22;6675;48.128;11.478;2024-03-25T10:33:00;16.60;1.00
13221;DHT22;6675;48.128;11.478;2024-03-25T10:35:27;16.40;1.00
13221;DHT22;6675;48.128;11.478;2024-03-25T10:38:03;19.60;1.00
13221;DHT22;6675;48.128;11.478;2024-03-25T10:40:35;19.80;1.00
13221;DHT22;6675;48.128;11.478;2024-03-25T10:43:04;22.10;1.00
13221;DHT22;6675;48.128;11.478;2024-03-25T10:45:38;22.70;1.00
13221;DHT22;6675;48.128;11.478;2024-03-25T10:48:12;21.10;1.00
13221;DHT22;6675;48.128;11.478;2024-03-25T10:50:39;18.70;1.00
13221;DHT22;6675;48.128;11.478;2024-03-25T10:53:07;15.10;1.00
13221;DHT22;6675;48.128;11.478;2024-03-25T10:55:35;14.40;1.00
13221;DHT22;6675;48.128;11.478;2024-03-25T10:58:01;14.10;1.00
13221;DHT22;6675;48.128;11.478;2024-03-25T11:00:29;13.90;1.00
13221;DHT22;6675;48.128;11.478;2024-03-25T11:02:55;13.20;1.00
13221;DHT22;6675;48.128;11.478;2024-03-25T11:05:21;14.40;1.00
13221;DHT22;6675;48.128;11.478;2024-03-25T11:07:47;12.20;1.00
13221;DHT22;6675;48.128;11.478;2024-03-25T11:10:13;12.00;1.00
13221;DHT22;6675;48.128;11.478;2024-03-25T11:12:41;11.80;1.00
13221;DHT22;6675;48.128;11.478;2024-03-25T11:15:10;13.90;1.00
13221;DHT22;6675;48.128;11.478;2024-03-25T11:17:37;10.80;1.00
13221;DHT22;6675;48.128;11.478;2024-03-25T11:20:16;13.50;1.00
13221;DHT22;6675;48.128;11.478;2024-03-25T11:23:11;20.30;1.00
13221;DHT22;6675;48.128;11.478;2024-03-25T11:25:38;18.30;1.00
13221;DHT22;6675;48.128;11.478;2024-03-25T11:28:04;22.80;1.00
13221;DHT22;6675;48.128;11.478;2024-03-25T11:30:30;23.00;1.00
13221;DHT22;6675;48.128;11.478;2024-03-25T11:32:57;23.00;1.00
13221;DHT22;6675;48.128;11.478;2024-03-25T11:35:23;23.60;1.00
13221;DHT22;6675;48.128;11.478;2024-03-25T11:37:50;20.50;1.00
13221;DHT22;6675;48.128;11.478;2024-03-25T11:40:18;19.10;1.00
13221;DHT22;6675;48.128;11.478;2024-03-25T11:42:44;18.30;1.00
13221;DHT22;6675;48.128;11.478;2024-03-25T11:45:20;19.70;1.00
13221;DHT22;6675;48.128;11.478;2024-03-25T11:47:48;19.40;1.00
13221;DHT22;6675;48.128;11.478;2024-03-25T11:50:18;18.80;1.00
13221;DHT22;6675;48.128;11.478;2024-03-25T11:52:44;18.00;1.00
13221;DHT22;6675;48.128;11.478;2024-03-25T11:55:10;18.20;1.00
13221;DHT22;6675;48.128;11.478;2024-03-25T11:57:37;18.80;1.00
13221;DHT22;6675;48.128;11.478;2024-03-25T12:00:04;16.80;1.00
13221;DHT22;6675;48.128;11.478;2024-03-25T12:02:31;16.30;1.00
13221;DHT22;6675;48.128;11.478;2024-03-25T12:04:57;15.70;1.00
13221;DHT22;6675;48.128;11.478;2024-03-25T12:07:23;14.60;1.00
13221;DHT22;6675;48.128;11.478;2024-03-25T12:09:48;15.20;1.00
13221;DHT22;6675;48.128;11.478;2024-03-25T12:12:33;14.80;1.00
13221;DHT22;6675;48.128;11.478;2024-03-25T12:15:00;14.80;1.00
13221;DHT22;6675;48.128;11.478;2024-03-25T12:17:28;18.30;1.00
13221;DHT22;6675;48.128;11.478;2024-03-25T12:20:03;20.60;1.00
13221;DHT22;6675;48.128;11.478;2024-03-25T12:22:33;19.80;1.00
13221;DHT22;6675;48.128;11.478;2024-03-25T12:25:03;23.80;1.00
13221;DHT22;6675;48.128;11.478;2024-03-25T12:27:31;24.20;1.00
13221;DHT22;6675;48.128;11.478;2024-03-25T12:30:05;23.90;1.00
13221;DHT22;6675;48.128;11.478;2024-03-25T12:32:42;22.90;1.00
13221;DHT22;6675;48.128;11.478;2024-03-25T12:35:13;25.00;1.00
13221;DHT22;6675;48.128;11.478;2024-03-25T12:37:45;24.90;1.00
13221;DHT22;6675;48.128;11.478;2024-03-25T12:40:25;27.20;1.00
13221;DHT22;6675;48.128;11.478;2024-03-25T12:42:54;29.00;1.00
13221;DHT22;6675;48.128;11.478;2024-03-25T12:45:20;31.00;1.00
13221;DHT22;6675;48.128;11.478;2024-03-25T12:47:46;30.10;1.00
13221;DHT22;6675;48.128;11.478;2024-03-25T12:50:12;29.60;1.00
13221;DHT22;6675;48.128;11.478;2024-03-25T12:52:37;27.30;1.00
13221;DHT22;6675;48.128;11.478;2024-03-25T12:55:03;21.50;1.00
13221;DHT22;6675;48.128;11.478;2024-03-25T12:57:29;23.10;1.00
13221;DHT22;6675;48.128;11.478;2024-03-25T12:59:55;23.10;1.00
13221;DHT22;6675;48.128;11.478;2024-03-25T13:02:20;22.20;1.00
13221;DHT22;6675;48.128;11.478;2024-03-25T13:04:48;21.20;1.00
13221;DHT22;6675;48.128;11.478;2024-03-25T13:07:14;20.30;1.00
13221;DHT22;6675;48.128;11.478;2024-03-25T13:09:39;20.50;1.00
13221;DHT22;6675;48.128;11.478;2024-03-25T13:12:05;20.80;1.00
13221;DHT22;6675;48.128;11.478;2024-03-25T13:14:31;22.70;1.00
13221;DHT22;6675;48.128;11.478;2024-03-25T13:16:56;24.10;1.00
13221;DHT22;6675;48.128;11.478;2024-03-25T13:19:22;25.40;1.00
13221;DHT22;6675;48.128;11.478;2024-03-25T13:21:47;27.10;1.00
13221;DHT22;6675;48.128;11.478;2024-03-25T13:24:14;26.80;1.00
13221;DHT22;6675;48.128;11.478;2024-03-25T13:26:39;26.90;1.00
13221;DHT22;6675;48.128;11.478;2024-03-25T13:29:05;27.30;1.00
13221;DHT22;6675;48.128;11.478;2024-03-25T13:31:33;27.90;1.00
13221;DHT22;6675;48.128;11.478;2024-03-25T13:33:58;28.10;1.00
13221;DHT22;6675;48.128;11.478;2024-03-25T13:36:24;27.50;1.00
13221;DHT22;6675;48.128;11.478;2024-03-25T13:38:49;26.40;1.00
13221;DHT22;6675;48.128;11.478;2024-03-25T13:41:15;24.60;1.00
13221;DHT22;6675;48.128;11.478;2024-03-25T13:43:43;24.50;1.00
13221;DHT22;6675;48.128;11.478;2024-03-25T13:46:09;25.60;1.00
13221;DHT22;6675;48.128;11.478;2024-03-25T13:48:34;25.90;1.00
13221;DHT22;6675;48.128;11.478;2024-03-25T13:51:00;26.50;1.00
13221;DHT22;6675;48.128;11.478;2024-03-25T13:53:25;26.60;1.00
13221;DHT22;6675;48.128;11.478;2024-03-25T13:55:52;27.10;1.00
13221;DHT22;6675;48.128;11.478;2024-03-25T13:58:19;26.90;1.00
13221;DHT22;6675;48.128;11.478;2024-03-25T14:00:45;26.70;1.00
13221;DHT22;6675;48.128;11.478;2024-03-25T14:03:10;26.40;1.00
13221;DHT22;6675;48.128;11.478;2024-03-25T14:05:36;25.70;1.00
13221;DHT22;6675;48.128;11.478;2024-03-25T14:08:02;25.60;1.00
13221;DHT22;6675;48.128;11.478;2024-03-25T14:10:30;23.10;1.00
13221;DHT22;6675;48.128;11.478;2024-03-25T14:12:56;23.10;1.00
13221;DHT22;6675;48.128;11.478;2024-03-25T14:15:22;23.00;1.00
13221;DHT22;6675;48.128;11.478;2024-03-25T14:17:47;23.50;1.00
13221;DHT22;6675;48.128;11.478;2024-03-25T14:20:15;23.80;1.00
13221;DHT22;6675;48.128;11.478;2024-03-25T14:22:41;24.30;1.00
13221;DHT22;6675;48.128;11.478;2024-03-25T14:25:07;24.40;1.00
13221;DHT22;6675;48.128;11.478;2024-03-25T14:27:34;24.60;1.00
13221;DHT22;6675;48.128;11.478;2024-03-25T14:29:59;24.60;1.00
13221;DHT22;6675;48.128;11.478;2024-03-25T14:32:27;24.80;1.00
13221;DHT22;6675;48.128;11.478;2024-03-25T14:34:53;24.70;1.00
13221;DHT22;6675;48.128;11.478;2024-03-25T14:37:18;24.60;1.00
13221;DHT22;6675;48.128;11.478;2024-03-25T14:39:44;24.70;1.00
13221;DHT22;6675;48.128;11.478;2024-03-25T14:42:10;24.50;1.00
13221;DHT22;6675;48.128;11.478;2024-03-25T14:44:36;24.60;1.00
13221;DHT22;6675;48.128;11.478;2024-03-25T14:47:02;24.70;1.00
13221;DHT22;6675;48.128;11.478;2024-03-25T14:49:28;24.70;1.00
13221;DHT22;6675;48.128;11.478;2024-03-25T14:51:54;24.80;1.00
13221;DHT22;6675;48.128;11.478;2024-03-25T14:54:19;24.70;1.00
13221;DHT22;6675;48.128;11.478;2024-03-25T14:56:48;23.50;1.00
13221;DHT22;6675;48.128;11.478;2024-03-25T14:59:14;23.50;1.00
13221;DHT22;6675;48.128;11.478;2024-03-25T15:01:39;23.30;1.00
13221;DHT22;6675;48.128;11.478;2024-03-25T15:04:05;22.80;1.00
13221;DHT22;6675;48.128;11.478;2024-03-25T15:06:31;22.80;1.00
13221;DHT22;6675;48.128;11.478;2024-03-25T15:08:58;23.10;1.00
13221;DHT22;6675;48.128;11.478;2024-03-25T15:11:24;23.10;1.00
13221;DHT22;6675;48.128;11.478;2024-03-25T15:13:51;22.70;1.00
13221;DHT22;6675;48.128;11.478;2024-03-25T15:16:17;22.20;1.00
13221;DHT22;6675;48.128;11.478;2024-03-25T15:18:43;21.90;1.00
13221;DHT22;6675;48.128;11.478;2024-03-25T15:21:08;20.80;1.00
13221;DHT22;6675;48.128;11.478;2024-03-25T15:23:34;20.00;1.00
13221;DHT22;6675;48.128;11.478;2024-03-25T15:25:59;18.90;1.00
13221;DHT22;6675;48.128;11.478;2024-03-25T15:28:25;18.60;1.00
13221;DHT22;6675;48.128;11.478;2024-03-25T15:30:52;18.00;1.00
13221;DHT22;6675;48.128;11.478;2024-03-25T15:33:18;17.50;1.00
13221;DHT22;6675;48.128;11.478;2024-03-25T15:35:44;16.60;1.00
13221;DHT22;6675;48.128;11.478;2024-03-25T15:38:10;16.60;1.00
13221;DHT22;6675;48.128;11.478;2024-03-25T15:40:36;16.50;1.00
13221;DHT22;6675;48.128;11.478;2024-03-25T15:43:02;17.50;1.00
13221;DHT22;6675;48.128;11.478;2024-03-25T15:45:29;15.30;1.00
13221;DHT22;6675;48.128;11.478;2024-03-25T15:47:55;15.50;1.00
13221;DHT22;6675;48.128;11.478;2024-03-25T15:50:20;14.60;1.00
13221;DHT22;6675;48.128;11.478;2024-03-25T15:52:46;14.70;1.00
13221;DHT22;6675;48.128;11.478;2024-03-25T15:55:11;14.10;1.00
13221;DHT22;6675;48.128;11.478;2024-03-25T15:57:37;14.00;1.00
13221;DHT22;6675;48.128;11.478;2024-03-25T16:00:03;15.10;1.00
13221;DHT22;6675;48.128;11.478;2024-03-25T16:02:30;13.70;1.00
13221;DHT22;6675;48.128;11.478;2024-03-25T16:04:56;13.10;1.00